sensor_id;sensor_type;location;lat;lon;timestamp;P1;durP1;ratioP1;P2;durP2;ratioP2
78205;SDS011;67480;48.920;12.880;2024-01-10T00:01:16;14.98;;;9.73;;
78205;SDS011;67480;48.920;12.880;2024-01-10T00:03:42;14.07;;;10.52;;
78205;SDS011;67480;48.920;12.880;2024-01-10T00:06:08;13.10;;;9.02;;
78205;SDS011;67480;48.920;12.880;2024-01-10T00:08:33;15.32;;;10.02;;
78205;SDS011;67480;48.920;12.880;2024-01-10T00:10:58;13.63;;;9.05;;
78205;SDS011;67480;48.920;12.880;2024-01-10T00:13:24;12.00;;;8.52;;
78205;SDS011;67480;48.920;12.880;2024-01-10T00:15:49;12.88;;;9.55;;
78205;SDS011;67480;48.920;12.880;2024-01-10T00:18:15;11.63;;;8.25;;
78205;SDS011;67480;48.920;12.880;2024-01-10T00:20:40;12.57;;;8.82;;
78205;SDS011;67480;48.920;12.880;2024-01-10T00:23:05;11.82;;;8.38;;
78205;SDS011;67480;48.920;12.880;2024-01-10T00:25:31;13.48;;;9.00;;
78205;SDS011;67480;48.920;12.880;2024-01-10T00:27:57;12.23;;;8.23;;
78205;SDS011;67480;48.920;12.880;2024-01-10T00:30:22;13.93;;;9.23;;
78205;SDS011;67480;48.920;12.880;2024-01-10T00:32:48;12.82;;;9.10;;
78205;SDS011;67480;48.920;12.880;2024-01-10T00:35:13;15.25;;;8.77;;
78205;SDS011;67480;48.920;12.880;2024-01-10T00:37:39;12.93;;;8.30;;
78205;SDS011;67480;48.920;12.880;2024-01-10T00:40:04;12.82;;;8.13;;
78205;SDS011;67480;48.920;12.880;2024-01-10T00:42:30;12.32;;;8.63;;
78205;SDS011;67480;48.920;12.880;2024-01-10T00:44:56;12.57;;;8.45;;
78205;SDS011;67480;48.920;12.880;2024-01-10T00:47:21;13.85;;;9.00;;
78205;SDS011;67480;48.920;12.880;2024-01-10T00:49:46;14.77;;;9.48;;
78205;SDS011;67480;48.920;12.880;2024-01-10T00:52:12;14.00;;;8.88;;
78205;SDS011;67480;48.920;12.880;2024-01-10T00:54:37;12.07;;;8.60;;
78205;SDS011;67480;48.920;12.880;2024-01-10T00:57:02;12.82;;;8.48;;
78205;SDS011;67480;48.920;12.880;2024-01-10T00:59:28;13.93;;;8.85;;
78205;SDS011;67480;48.920;12.880;2024-01-10T01:01:53;13.80;;;8.73;;
78205;SDS011;67480;48.920;12.880;2024-01-10T01:04:19;12.15;;;8.85;;
78205;SDS011;67480;48.920;12.880;2024-01-10T01:06:44;13.48;;;8.65;;
78205;SDS011;67480;48.920;12.880;2024-01-10T01:09:09;11.88;;;8.45;;
78205;SDS011;67480;48.920;12.880;2024-01-10T01:11:35;14.15;;;9.23;;
78205;SDS011;67480;48.920;12.880;2024-01-10T01:14:00;13.52;;;9.15;;
78205;SDS011;67480;48.920;12.880;2024-01-10T01:16:25;14.63;;;8.85;;
78205;SDS011;67480;48.920;12.880;2024-01-10T01:18:51;15.40;;;9.45;;
78205;SDS011;67480;48.920;12.880;2024-01-10T01:21:16;13.77;;;8.75;;
78205;SDS011;67480;48.920;12.880;2024-01-10T01:23:42;12.75;;;8.65;;
78205;SDS011;67480;48.920;12.880;2024-01-10T01:26:07;14.48;;;9.05;;
78205;SDS011;67480;48.920;12.880;2024-01-10T01:28:32;14.82;;;9.43;;
78205;SDS011;67480;48.920;12.880;2024-01-10T01:30:58;12.20;;;8.88;;
78205;SDS011;67480;48.920;12.880;2024-01-10T01:33:23;11.50;;;8.38;;
78205;SDS011;67480;48.920;12.880;2024-01-10T01:35:48;13.80;;;8.77;;
78205;SDS011;67480;48.920;12.880;2024-01-10T01:38:14;13.80;;;8.80;;
78205;SDS011;67480;48.920;12.880;2024-01-10T01:40:39;15.38;;;9.13;;
78205;SDS011;67480;48.920;12.880;2024-01-10T01:43:20;14.68;;;9.80;;
78205;SDS011;67480;48.920;12.880;2024-01-10T01:45:53;13.27;;;9.32;;
78205;SDS011;67480;48.920;12.880;2024-01-10T01:48:20;14.30;;;9.43;;
78205;SDS011;67480;48.920;12.880;2024-01-10T01:50:47;12.90;;;9.10;;
78205;SDS011;67480;48.920;12.880;2024-01-10T01:53:15;15.43;;;8.98;;
78205;SDS011;67480;48.920;12.880;2024-01-10T01:55:42;13.73;;;8.80;;
78205;SDS011;67480;48.920;12.880;2024-01-10T01:58:10;12.30;;;8.27;;
78205;SDS011;67480;48.920;12.880;2024-01-10T02:00:36;16.55;;;9.35;;
78205;SDS011;67480;48.920;12.880;2024-01-10T02:03:02;12.10;;;8.45;;
78205;SDS011;67480;48.920;12.880;2024-01-10T02:05:29;14.02;;;8.93;;
78205;SDS011;67480;48.920;12.880;2024-01-10T02:07:55;14.07;;;9.25;;
78205;SDS011;67480;48.920;12.880;2024-01-10T02:10:20;14.23;;;9.93;;
78205;SDS011;67480;48.920;12.880;2024-01-10T02:12:46;15.20;;;9.45;;
78205;SDS011;67480;48.920;12.880;2024-01-10T02:15:11;14.25;;;8.80;;
78205;SDS011;67480;48.920;12.880;2024-01-10T02:17:37;15.10;;;9.95;;
78205;SDS011;67480;48.920;12.880;2024-01-10T02:20:09;13.50;;;9.98;;
78205;SDS011;67480;48.920;12.880;2024-01-10T02:25:57;13.60;;;8.77;;
78205;SDS011;67480;48.920;12.880;2024-01-10T02:28:22;14.82;;;8.85;;
78205;SDS011;67480;48.920;12.880;2024-01-10T02:30:49;14.90;;;9.40;;
78205;SDS011;67480;48.920;12.880;2024-01-10T02:33:16;12.93;;;8.68;;
78205;SDS011;67480;48.920;12.880;2024-01-10T02:35:41;13.48;;;8.43;;
78205;SDS011;67480;48.920;12.880;2024-01-10T02:38:06;13.07;;;8.85;;
78205;SDS011;67480;48.920;12.880;2024-01-10T02:40:32;12.80;;;8.75;;
78205;SDS011;67480;48.920;12.880;2024-01-10T02:42:57;13.95;;;8.75;;
78205;SDS011;67480;48.920;12.880;2024-01-10T02:45:22;13.43;;;8.68;;
78205;SDS011;67480;48.920;12.880;2024-01-10T02:47:48;14.48;;;9.27;;
78205;SDS011;67480;48.920;12.880;2024-01-10T02:50:13;14.23;;;9.30;;
78205;SDS011;67480;48.920;12.880;2024-01-10T02:52:39;13.80;;;8.90;;
78205;SDS011;67480;48.920;12.880;2024-01-10T02:55:04;14.82;;;9.43;;
78205;SDS011;67480;48.920;12.880;2024-01-10T02:57:30;14.90;;;9.18;;
78205;SDS011;67480;48.920;12.880;2024-01-10T02:59:55;15.45;;;9.63;;
78205;SDS011;67480;48.920;12.880;2024-01-10T03:02:20;13.75;;;9.15;;
78205;SDS011;67480;48.920;12.880;2024-01-10T03:04:48;15.70;;;10.57;;
78205;SDS011;67480;48.920;12.880;2024-01-10T03:07:13;17.75;;;11.75;;
78205;SDS011;67480;48.920;12.880;2024-01-10T03:09:38;19.95;;;13.93;;
78205;SDS011;67480;48.920;12.880;2024-01-10T03:12:04;17.55;;;11.60;;
78205;SDS011;67480;48.920;12.880;2024-01-10T03:14:29;17.30;;;12.07;;
78205;SDS011;67480;48.920;12.880;2024-01-10T03:16:54;17.30;;;11.63;;
78205;SDS011;67480;48.920;12.880;2024-01-10T03:19:20;14.63;;;10.10;;
78205;SDS011;67480;48.920;12.880;2024-01-10T03:21:45;14.98;;;10.43;;
78205;SDS011;67480;48.920;12.880;2024-01-10T03:24:10;17.80;;;10.73;;
78205;SDS011;67480;48.920;12.880;2024-01-10T03:26:36;16.17;;;12.07;;
78205;SDS011;67480;48.920;12.880;2024-01-10T03:29:01;19.67;;;12.85;;
78205;SDS011;67480;48.920;12.880;2024-01-10T03:31:27;18.48;;;12.27;;
78205;SDS011;67480;48.920;12.880;2024-01-10T03:33:53;18.88;;;12.90;;
78205;SDS011;67480;48.920;12.880;2024-01-10T03:36:19;18.00;;;12.32;;
78205;SDS011;67480;48.920;12.880;2024-01-10T03:38:44;21.02;;;12.07;;
78205;SDS011;67480;48.920;12.880;2024-01-10T03:41:13;17.63;;;11.90;;
78205;SDS011;67480;48.920;12.880;2024-01-10T03:43:39;18.25;;;12.48;;
78205;SDS011;67480;48.920;12.880;2024-01-10T03:46:05;18.85;;;11.65;;
78205;SDS011;67480;48.920;12.880;2024-01-10T03:48:30;21.20;;;11.55;;
78205;SDS011;67480;48.920;12.880;2024-01-10T03:50:56;17.73;;;10.73;;
78205;SDS011;67480;48.920;12.880;2024-01-10T03:53:21;17.38;;;10.80;;
78205;SDS011;67480;48.920;12.880;2024-01-10T03:59:05;19.13;;;10.10;;
78205;SDS011;67480;48.920;12.880;2024-01-10T04:01:30;17.25;;;10.88;;
78205;SDS011;67480;48.920;12.880;2024-01-10T04:03:55;22.27;;;11.07;;
78205;SDS011;67480;48.920;12.880;2024-01-10T04:06:21;21.23;;;11.38;;
78205;SDS011;67480;48.920;12.880;2024-01-10T04:08:46;19.83;;;11.52;;
78205;SDS011;67480;48.920;12.880;2024-01-10T04:11:11;18.88;;;11.27;;
78205;SDS011;67480;48.920;12.880;2024-01-10T04:13:37;18.13;;;10.90;;
78205;SDS011;67480;48.920;12.880;2024-01-10T04:16:02;16.45;;;11.43;;
78205;SDS011;67480;48.920;12.880;2024-01-10T04:18:27;18.77;;;11.45;;
78205;SDS011;67480;48.920;12.880;2024-01-10T04:20:53;19.20;;;11.68;;
78205;SDS011;67480;48.920;12.880;2024-01-10T04:23:19;17.55;;;11.52;;
78205;SDS011;67480;48.920;12.880;2024-01-10T04:25:44;18.13;;;11.48;;
78205;SDS011;67480;48.920;12.880;2024-01-10T04:28:09;17.00;;;10.52;;
78205;SDS011;67480;48.920;12.880;2024-01-10T04:30:35;18.17;;;11.15;;
78205;SDS011;67480;48.920;12.880;2024-01-10T04:33:00;19.05;;;11.05;;
78205;SDS011;67480;48.920;12.880;2024-01-10T04:35:25;19.83;;;11.38;;
78205;SDS011;67480;48.920;12.880;2024-01-10T04:37:51;18.98;;;11.38;;
78205;SDS011;67480;48.920;12.880;2024-01-10T04:40:16;18.65;;;11.50;;
78205;SDS011;67480;48.920;12.880;2024-01-10T04:42:42;18.23;;;11.63;;
78205;SDS011;67480;48.920;12.880;2024-01-10T04:45:07;19.98;;;11.10;;
78205;SDS011;67480;48.920;12.880;2024-01-10T04:47:33;20.42;;;11.27;;
78205;SDS011;67480;48.920;12.880;2024-01-10T04:49:58;19.05;;;11.38;;
78205;SDS011;67480;48.920;12.880;2024-01-10T04:52:24;16.15;;;10.68;;
78205;SDS011;67480;48.920;12.880;2024-01-10T04:54:49;18.13;;;10.52;;
78205;SDS011;67480;48.920;12.880;2024-01-10T04:57:14;16.27;;;10.73;;
78205;SDS011;67480;48.920;12.880;2024-01-10T04:59:41;21.17;;;11.25;;
78205;SDS011;67480;48.920;12.880;2024-01-10T05:02:06;18.17;;;11.38;;
78205;SDS011;67480;48.920;12.880;2024-01-10T05:04:32;18.00;;;11.27;;
78205;SDS011;67480;48.920;12.880;2024-01-10T05:06:57;18.13;;;11.48;;
78205;SDS011;67480;48.920;12.880;2024-01-10T05:09:22;17.73;;;11.75;;
78205;SDS011;67480;48.920;12.880;2024-01-10T05:11:48;16.63;;;10.77;;
78205;SDS011;67480;48.920;12.880;2024-01-10T05:14:16;20.25;;;11.50;;
78205;SDS011;67480;48.920;12.880;2024-01-10T05:16:42;17.05;;;11.50;;
78205;SDS011;67480;48.920;12.880;2024-01-10T05:19:07;16.92;;;10.82;;
78205;SDS011;67480;48.920;12.880;2024-01-10T05:21:32;15.82;;;10.70;;
78205;SDS011;67480;48.920;12.880;2024-01-10T05:23:58;20.48;;;11.02;;
78205;SDS011;67480;48.920;12.880;2024-01-10T05:26:24;16.75;;;11.73;;
78205;SDS011;67480;48.920;12.880;2024-01-10T05:28:49;17.80;;;10.95;;
78205;SDS011;67480;48.920;12.880;2024-01-10T05:31:14;19.33;;;12.15;;
78205;SDS011;67480;48.920;12.880;2024-01-10T05:33:40;18.10;;;12.43;;
78205;SDS011;67480;48.920;12.880;2024-01-10T05:36:07;16.98;;;11.30;;
78205;SDS011;67480;48.920;12.880;2024-01-10T05:38:36;22.20;;;12.57;;
78205;SDS011;67480;48.920;12.880;2024-01-10T05:41:02;19.58;;;12.35;;
78205;SDS011;67480;48.920;12.880;2024-01-10T05:43:27;19.63;;;11.60;;
78205;SDS011;67480;48.920;12.880;2024-01-10T05:45:52;17.10;;;11.77;;
78205;SDS011;67480;48.920;12.880;2024-01-10T05:48:18;19.50;;;12.10;;
78205;SDS011;67480;48.920;12.880;2024-01-10T05:50:43;17.65;;;11.73;;
78205;SDS011;67480;48.920;12.880;2024-01-10T05:53:09;19.55;;;12.05;;
78205;SDS011;67480;48.920;12.880;2024-01-10T05:55:35;21.20;;;12.60;;
78205;SDS011;67480;48.920;12.880;2024-01-10T05:58:01;20.38;;;11.95;;
78205;SDS011;67480;48.920;12.880;2024-01-10T06:00:27;19.75;;;12.95;;
78205;SDS011;67480;48.920;12.880;2024-01-10T06:02:53;19.98;;;12.13;;
78205;SDS011;67480;48.920;12.880;2024-01-10T06:05:18;18.65;;;11.70;;
78205;SDS011;67480;48.920;12.880;2024-01-10T06:07:44;17.55;;;12.15;;
78205;SDS011;67480;48.920;12.880;2024-01-10T06:10:09;19.05;;;12.63;;
78205;SDS011;67480;48.920;12.880;2024-01-10T06:12:35;19.33;;;12.13;;
78205;SDS011;67480;48.920;12.880;2024-01-10T06:15:00;18.88;;;11.80;;
78205;SDS011;67480;48.920;12.880;2024-01-10T06:17:26;20.20;;;12.10;;
78205;SDS011;67480;48.920;12.880;2024-01-10T06:19:51;18.17;;;11.65;;
78205;SDS011;67480;48.920;12.880;2024-01-10T06:22:17;16.35;;;11.32;;
78205;SDS011;67480;48.920;12.880;2024-01-10T06:24:43;19.38;;;11.93;;
78205;SDS011;67480;48.920;12.880;2024-01-10T06:27:09;18.95;;;12.93;;
78205;SDS011;67480;48.920;12.880;2024-01-10T06:29:35;21.48;;;13.98;;
78205;SDS011;67480;48.920;12.880;2024-01-10T06:32:00;22.90;;;14.40;;
78205;SDS011;67480;48.920;12.880;2024-01-10T06:34:26;19.67;;;12.40;;
78205;SDS011;67480;48.920;12.880;2024-01-10T06:36:52;20.70;;;13.23;;
78205;SDS011;67480;48.920;12.880;2024-01-10T06:39:18;19.48;;;12.00;;
78205;SDS011;67480;48.920;12.880;2024-01-10T06:41:45;21.60;;;12.73;;
78205;SDS011;67480;48.920;12.880;2024-01-10T06:44:11;18.92;;;12.48;;
78205;SDS011;67480;48.920;12.880;2024-01-10T06:46:37;17.83;;;12.15;;
78205;SDS011;67480;48.920;12.880;2024-01-10T06:49:02;21.20;;;13.57;;
78205;SDS011;67480;48.920;12.880;2024-01-10T06:51:27;19.85;;;12.18;;
78205;SDS011;67480;48.920;12.880;2024-01-10T06:53:53;19.63;;;12.52;;
78205;SDS011;67480;48.920;12.880;2024-01-10T06:56:25;19.52;;;12.65;;
78205;SDS011;67480;48.920;12.880;2024-01-10T06:58:50;19.10;;;12.45;;
78205;SDS011;67480;48.920;12.880;2024-01-10T07:01:16;21.25;;;13.05;;
78205;SDS011;67480;48.920;12.880;2024-01-10T07:03:41;20.60;;;14.35;;
78205;SDS011;67480;48.920;12.880;2024-01-10T07:06:07;20.85;;;13.40;;
78205;SDS011;67480;48.920;12.880;2024-01-10T07:08:32;20.75;;;13.85;;
78205;SDS011;67480;48.920;12.880;2024-01-10T07:10:57;24.52;;;14.82;;
78205;SDS011;67480;48.920;12.880;2024-01-10T07:13:23;23.25;;;14.35;;
78205;SDS011;67480;48.920;12.880;2024-01-10T07:15:48;25.42;;;14.80;;
78205;SDS011;67480;48.920;12.880;2024-01-10T07:18:16;24.92;;;14.25;;
78205;SDS011;67480;48.920;12.880;2024-01-10T07:20:42;22.05;;;13.25;;
78205;SDS011;67480;48.920;12.880;2024-01-10T07:23:07;20.27;;;13.02;;
78205;SDS011;67480;48.920;12.880;2024-01-10T07:25:32;20.00;;;12.95;;
78205;SDS011;67480;48.920;12.880;2024-01-10T07:27:58;21.63;;;13.77;;
78205;SDS011;67480;48.920;12.880;2024-01-10T07:30:24;21.10;;;13.52;;
78205;SDS011;67480;48.920;12.880;2024-01-10T07:32:49;21.92;;;14.13;;
78205;SDS011;67480;48.920;12.880;2024-01-10T07:35:15;21.27;;;13.68;;
78205;SDS011;67480;48.920;12.880;2024-01-10T07:37:41;20.08;;;13.02;;
78205;SDS011;67480;48.920;12.880;2024-01-10T07:40:07;22.73;;;14.75;;
78205;SDS011;67480;48.920;12.880;2024-01-10T07:42:35;22.98;;;13.65;;
78205;SDS011;67480;48.920;12.880;2024-01-10T07:45:01;23.67;;;13.88;;
78205;SDS011;67480;48.920;12.880;2024-01-10T07:47:30;20.27;;;13.10;;
78205;SDS011;67480;48.920;12.880;2024-01-10T07:50:05;18.50;;;12.88;;
78205;SDS011;67480;48.920;12.880;2024-01-10T07:52:34;24.05;;;13.98;;
78205;SDS011;67480;48.920;12.880;2024-01-10T07:55:00;19.77;;;13.45;;
78205;SDS011;67480;48.920;12.880;2024-01-10T07:57:26;24.25;;;14.20;;
78205;SDS011;67480;48.920;12.880;2024-01-10T07:59:52;19.73;;;12.75;;
78205;SDS011;67480;48.920;12.880;2024-01-10T08:02:18;21.08;;;13.25;;
78205;SDS011;67480;48.920;12.880;2024-01-10T08:04:43;21.75;;;13.80;;
78205;SDS011;67480;48.920;12.880;2024-01-10T08:07:08;19.92;;;13.48;;
78205;SDS011;67480;48.920;12.880;2024-01-10T08:09:34;20.58;;;13.73;;
78205;SDS011;67480;48.920;12.880;2024-01-10T08:12:01;20.85;;;13.15;;
78205;SDS011;67480;48.920;12.880;2024-01-10T08:14:27;21.35;;;13.30;;
78205;SDS011;67480;48.920;12.880;2024-01-10T08:16:52;23.48;;;14.13;;
78205;SDS011;67480;48.920;12.880;2024-01-10T08:19:19;23.13;;;14.45;;
78205;SDS011;67480;48.920;12.880;2024-01-10T08:21:45;24.33;;;13.95;;
78205;SDS011;67480;48.920;12.880;2024-01-10T08:24:10;21.88;;;14.25;;
78205;SDS011;67480;48.920;12.880;2024-01-10T08:26:35;19.52;;;13.00;;
78205;SDS011;67480;48.920;12.880;2024-01-10T08:29:02;22.85;;;15.63;;
78205;SDS011;67480;48.920;12.880;2024-01-10T08:31:28;25.85;;;16.65;;
78205;SDS011;67480;48.920;12.880;2024-01-10T08:33:54;23.15;;;15.40;;
78205;SDS011;67480;48.920;12.880;2024-01-10T08:36:19;25.52;;;15.82;;
78205;SDS011;67480;48.920;12.880;2024-01-10T08:38:45;26.38;;;15.23;;
78205;SDS011;67480;48.920;12.880;2024-01-10T08:41:11;23.15;;;15.98;;
78205;SDS011;67480;48.920;12.880;2024-01-10T08:43:39;27.13;;;17.83;;
78205;SDS011;67480;48.920;12.880;2024-01-10T08:46:05;28.75;;;19.77;;
78205;SDS011;67480;48.920;12.880;2024-01-10T08:48:31;28.45;;;18.80;;
78205;SDS011;67480;48.920;12.880;2024-01-10T08:50:56;26.10;;;16.95;;
78205;SDS011;67480;48.920;12.880;2024-01-10T08:53:22;25.90;;;16.30;;
78205;SDS011;67480;48.920;12.880;2024-01-10T08:55:47;25.65;;;15.25;;
78205;SDS011;67480;48.920;12.880;2024-01-10T08:58:13;24.48;;;15.20;;
78205;SDS011;67480;48.920;12.880;2024-01-10T09:00:38;21.83;;;14.88;;
78205;SDS011;67480;48.920;12.880;2024-01-10T09:03:04;23.50;;;14.30;;
78205;SDS011;67480;48.920;12.880;2024-01-10T09:05:29;25.17;;;15.50;;
78205;SDS011;67480;48.920;12.880;2024-01-10T09:07:55;24.85;;;13.77;;
78205;SDS011;67480;48.920;12.880;2024-01-10T09:10:20;28.50;;;14.82;;
78205;SDS011;67480;48.920;12.880;2024-01-10T09:12:48;22.33;;;14.30;;
78205;SDS011;67480;48.920;12.880;2024-01-10T09:15:14;25.63;;;15.90;;
78205;SDS011;67480;48.920;12.880;2024-01-10T09:17:43;22.73;;;15.45;;
78205;SDS011;67480;48.920;12.880;2024-01-10T09:20:09;20.63;;;14.48;;
78205;SDS011;67480;48.920;12.880;2024-01-10T09:22:36;25.35;;;14.75;;
78205;SDS011;67480;48.920;12.880;2024-01-10T09:25:03;23.20;;;14.10;;
78205;SDS011;67480;48.920;12.880;2024-01-10T09:27:33;24.05;;;15.02;;
78205;SDS011;67480;48.920;12.880;2024-01-10T09:29:59;21.52;;;14.50;;
78205;SDS011;67480;48.920;12.880;2024-01-10T09:32:27;26.73;;;14.93;;
78205;SDS011;67480;48.920;12.880;2024-01-10T09:34:53;23.90;;;14.48;;
78205;SDS011;67480;48.920;12.880;2024-01-10T09:37:18;25.20;;;15.63;;
78205;SDS011;67480;48.920;12.880;2024-01-10T09:39:44;23.00;;;13.70;;
78205;SDS011;67480;48.920;12.880;2024-01-10T09:42:09;23.17;;;14.70;;
78205;SDS011;67480;48.920;12.880;2024-01-10T09:44:35;25.05;;;14.93;;
78205;SDS011;67480;48.920;12.880;2024-01-10T09:47:00;19.90;;;14.45;;
78205;SDS011;67480;48.920;12.880;2024-01-10T09:49:25;24.80;;;14.75;;
78205;SDS011;67480;48.920;12.880;2024-01-10T09:51:53;26.35;;;15.57;;
78205;SDS011;67480;48.920;12.880;2024-01-10T09:54:25;21.88;;;13.63;;
78205;SDS011;67480;48.920;12.880;2024-01-10T09:56:51;23.05;;;14.90;;
78205;SDS011;67480;48.920;12.880;2024-01-10T09:59:16;24.77;;;15.25;;
78205;SDS011;67480;48.920;12.880;2024-01-10T10:01:42;30.20;;;18.15;;
78205;SDS011;67480;48.920;12.880;2024-01-10T10:04:09;21.52;;;13.98;;
78205;SDS011;67480;48.920;12.880;2024-01-10T10:06:37;24.02;;;14.55;;
78205;SDS011;67480;48.920;12.880;2024-01-10T10:09:02;21.98;;;14.75;;
78205;SDS011;67480;48.920;12.880;2024-01-10T10:11:27;24.02;;;15.02;;
78205;SDS011;67480;48.920;12.880;2024-01-10T10:13:53;24.02;;;13.85;;
78205;SDS011;67480;48.920;12.880;2024-01-10T10:16:25;24.80;;;15.65;;
78205;SDS011;67480;48.920;12.880;2024-01-10T10:18:54;24.10;;;14.43;;
78205;SDS011;67480;48.920;12.880;2024-01-10T10:21:23;24.23;;;14.98;;
78205;SDS011;67480;48.920;12.880;2024-01-10T10:23:59;27.60;;;15.73;;
78205;SDS011;67480;48.920;12.880;2024-01-10T10:26:27;24.98;;;15.30;;
78205;SDS011;67480;48.920;12.880;2024-01-10T10:28:54;24.88;;;14.48;;
78205;SDS011;67480;48.920;12.880;2024-01-10T10:31:21;24.42;;;15.73;;
78205;SDS011;67480;48.920;12.880;2024-01-10T10:33:48;22.67;;;14.07;;
78205;SDS011;67480;48.920;12.880;2024-01-10T10:36:17;24.35;;;14.70;;
78205;SDS011;67480;48.920;12.880;2024-01-10T10:38:43;23.73;;;15.00;;
78205;SDS011;67480;48.920;12.880;2024-01-10T10:41:09;23.38;;;14.38;;
78205;SDS011;67480;48.920;12.880;2024-01-10T10:43:38;24.23;;;16.50;;
78205;SDS011;67480;48.920;12.880;2024-01-10T10:46:05;26.48;;;15.27;;
78205;SDS011;67480;48.920;12.880;2024-01-10T10:48:35;24.55;;;15.80;;
78205;SDS011;67480;48.920;12.880;2024-01-10T10:51:05;24.67;;;15.40;;
78205;SDS011;67480;48.920;12.880;2024-01-10T10:53:34;22.27;;;15.00;;
78205;SDS011;67480;48.920;12.880;2024-01-10T10:56:02;25.75;;;15.35;;
78205;SDS011;67480;48.920;12.880;2024-01-10T10:58:33;30.25;;;15.38;;
78205;SDS011;67480;48.920;12.880;2024-01-10T11:01:02;26.15;;;14.95;;
78205;SDS011;67480;48.920;12.880;2024-01-10T11:03:30;24.58;;;15.90;;
78205;SDS011;67480;48.920;12.880;2024-01-10T11:05:56;25.42;;;14.88;;
78205;SDS011;67480;48.920;12.880;2024-01-10T11:08:25;24.23;;;15.70;;
78205;SDS011;67480;48.920;12.880;2024-01-10T11:10:52;26.63;;;16.38;;
78205;SDS011;67480;48.920;12.880;2024-01-10T11:13:24;23.90;;;16.20;;
78205;SDS011;67480;48.920;12.880;2024-01-10T11:19:14;26.58;;;16.23;;
78205;SDS011;67480;48.920;12.880;2024-01-10T11:21:58;29.33;;;16.70;;
78205;SDS011;67480;48.920;12.880;2024-01-10T11:24:40;26.48;;;17.00;;
78205;SDS011;67480;48.920;12.880;2024-01-10T11:27:16;27.45;;;16.17;;
78205;SDS011;67480;48.920;12.880;2024-01-10T11:29:41;25.20;;;15.73;;
78205;SDS011;67480;48.920;12.880;2024-01-10T11:32:12;27.55;;;16.35;;
78205;SDS011;67480;48.920;12.880;2024-01-10T11:34:48;24.95;;;16.40;;
78205;SDS011;67480;48.920;12.880;2024-01-10T11:37:15;25.45;;;15.82;;
78205;SDS011;67480;48.920;12.880;2024-01-10T11:39:43;27.30;;;16.50;;
78205;SDS011;67480;48.920;12.880;2024-01-10T11:42:09;27.35;;;16.92;;
78205;SDS011;67480;48.920;12.880;2024-01-10T11:44:34;30.55;;;16.85;;
78205;SDS011;67480;48.920;12.880;2024-01-10T11:47:11;28.92;;;16.58;;
78205;SDS011;67480;48.920;12.880;2024-01-10T11:49:39;28.05;;;16.45;;
78205;SDS011;67480;48.920;12.880;2024-01-10T11:52:05;28.52;;;16.42;;
78205;SDS011;67480;48.920;12.880;2024-01-10T11:54:37;27.98;;;16.73;;
78205;SDS011;67480;48.920;12.880;2024-01-10T11:57:10;26.33;;;16.90;;
78205;SDS011;67480;48.920;12.880;2024-01-10T11:59:44;26.38;;;15.82;;
78205;SDS011;67480;48.920;12.880;2024-01-10T12:02:10;28.70;;;17.17;;
78205;SDS011;67480;48.920;12.880;2024-01-10T12:04:37;26.08;;;16.30;;
78205;SDS011;67480;48.920;12.880;2024-01-10T12:07:03;27.77;;;16.95;;
78205;SDS011;67480;48.920;12.880;2024-01-10T12:09:29;24.08;;;15.90;;
78205;SDS011;67480;48.920;12.880;2024-01-10T12:11:55;26.17;;;16.98;;
78205;SDS011;67480;48.920;12.880;2024-01-10T12:14:21;27.05;;;16.85;;
78205;SDS011;67480;48.920;12.880;2024-01-10T12:16:46;28.08;;;17.17;;
78205;SDS011;67480;48.920;12.880;2024-01-10T12:19:12;26.73;;;16.95;;
78205;SDS011;67480;48.920;12.880;2024-01-10T12:21:38;28.08;;;17.02;;
78205;SDS011;67480;48.920;12.880;2024-01-10T12:24:05;25.88;;;16.63;;
78205;SDS011;67480;48.920;12.880;2024-01-10T12:26:31;25.60;;;17.42;;
78205;SDS011;67480;48.920;12.880;2024-01-10T12:28:56;25.02;;;15.93;;
78205;SDS011;67480;48.920;12.880;2024-01-10T12:31:23;26.83;;;16.63;;
78205;SDS011;67480;48.920;12.880;2024-01-10T12:33:51;23.85;;;16.60;;
78205;SDS011;67480;48.920;12.880;2024-01-10T12:36:17;27.30;;;16.00;;
78205;SDS011;67480;48.920;12.880;2024-01-10T12:38:43;25.60;;;16.95;;
78205;SDS011;67480;48.920;12.880;2024-01-10T12:41:09;23.13;;;16.33;;
78205;SDS011;67480;48.920;12.880;2024-01-10T12:43:35;26.20;;;16.52;;
78205;SDS011;67480;48.920;12.880;2024-01-10T12:46:02;28.20;;;16.95;;
78205;SDS011;67480;48.920;12.880;2024-01-10T12:48:29;28.38;;;19.45;;
78205;SDS011;67480;48.920;12.880;2024-01-10T12:50:55;25.92;;;18.17;;
78205;SDS011;67480;48.920;12.880;2024-01-10T12:53:20;26.92;;;17.77;;
78205;SDS011;67480;48.920;12.880;2024-01-10T12:55:46;32.22;;;18.42;;
78205;SDS011;67480;48.920;12.880;2024-01-10T12:58:11;27.77;;;18.02;;
78205;SDS011;67480;48.920;12.880;2024-01-10T13:00:37;29.33;;;18.83;;
78205;SDS011;67480;48.920;12.880;2024-01-10T13:03:02;26.77;;;17.65;;
78205;SDS011;67480;48.920;12.880;2024-01-10T13:05:28;26.25;;;16.70;;
78205;SDS011;67480;48.920;12.880;2024-01-10T13:07:54;26.85;;;17.63;;
78205;SDS011;67480;48.920;12.880;2024-01-10T13:10:20;28.42;;;18.38;;
78205;SDS011;67480;48.920;12.880;2024-01-10T13:12:45;28.98;;;18.35;;
78205;SDS011;67480;48.920;12.880;2024-01-10T13:15:12;27.92;;;17.73;;
78205;SDS011;67480;48.920;12.880;2024-01-10T13:17:37;25.40;;;17.65;;
78205;SDS011;67480;48.920;12.880;2024-01-10T13:20:03;28.45;;;18.50;;
78205;SDS011;67480;48.920;12.880;2024-01-10T13:22:29;27.45;;;17.23;;
78205;SDS011;67480;48.920;12.880;2024-01-10T13:24:54;31.13;;;18.65;;
78205;SDS011;67480;48.920;12.880;2024-01-10T13:27:20;28.15;;;18.17;;
78205;SDS011;67480;48.920;12.880;2024-01-10T13:29:46;30.52;;;19.08;;
78205;SDS011;67480;48.920;12.880;2024-01-10T13:32:11;27.33;;;17.80;;
78205;SDS011;67480;48.920;12.880;2024-01-10T13:34:36;34.28;;;19.40;;
78205;SDS011;67480;48.920;12.880;2024-01-10T13:37:02;30.17;;;18.05;;
78205;SDS011;67480;48.920;12.880;2024-01-10T13:39:27;29.88;;;19.55;;
78205;SDS011;67480;48.920;12.880;2024-01-10T13:41:52;29.55;;;17.70;;
78205;SDS011;67480;48.920;12.880;2024-01-10T13:44:18;31.08;;;18.95;;
78205;SDS011;67480;48.920;12.880;2024-01-10T13:46:43;31.83;;;18.15;;
78205;SDS011;67480;48.920;12.880;2024-01-10T13:49:09;29.75;;;18.08;;
78205;SDS011;67480;48.920;12.880;2024-01-10T13:51:34;31.65;;;19.05;;
78205;SDS011;67480;48.920;12.880;2024-01-10T13:54:01;27.73;;;18.33;;
78205;SDS011;67480;48.920;12.880;2024-01-10T13:56:26;27.30;;;18.58;;
78205;SDS011;67480;48.920;12.880;2024-01-10T13:58:53;27.73;;;16.70;;
78205;SDS011;67480;48.920;12.880;2024-01-10T14:01:18;30.70;;;18.67;;
78205;SDS011;67480;48.920;12.880;2024-01-10T14:03:43;29.75;;;18.17;;
78205;SDS011;67480;48.920;12.880;2024-01-10T14:06:09;26.73;;;17.80;;
78205;SDS011;67480;48.920;12.880;2024-01-10T14:08:34;27.25;;;17.15;;
78205;SDS011;67480;48.920;12.880;2024-01-10T14:11:02;26.35;;;17.80;;
78205;SDS011;67480;48.920;12.880;2024-01-10T14:13:28;26.38;;;17.25;;
78205;SDS011;67480;48.920;12.880;2024-01-10T14:15:53;29.60;;;18.38;;